sensor_id;sensor_type;location;lat;lon;timestamp;temperature;humidity
10459;DHT22;5277;48.722;8.736;2023-09-19T00:01:28;17.30;99.90
10459;DHT22;5277;48.722;8.736;2023-09-19T00:03:56;17.30;99.90
10459;DHT22;5277;48.722;8.736;2023-09-19T00:06:23;17.30;99.90
10459;DHT22;5277;48.722;8.736;2023-09-19T00:08:51;17.30;99.90
10459;DHT22;5277;48.722;8.736;2023-09-19T00:11:17;17.30;99.90
10459;DHT22;5277;48.722;8.736;2023-09-19T00:13:42;17.30;99.90
10459;DHT22;5277;48.722;8.736;2023-09-19T00:16:10;17.30;99.90
10459;DHT22;5277;48.722;8.736;2023-09-19T00:18:39;17.30;99.90
10459;DHT22;5277;48.722;8.736;2023-09-19T00:21:05;17.40;99.90
10459;DHT22;5277;48.722;8.736;2023-09-19T00:23:31;17.30;99.90
10459;DHT22;5277;48.722;8.736;2023-09-19T00:26:00;17.30;99.90
10459;DHT22;5277;48.722;8.736;2023-09-19T00:28:26;17.40;99.90
10459;DHT22;5277;48.722;8.736;2023-09-19T00:30:52;17.30;99.90
10459;DHT22;5277;48.722;8.736;2023-09-19T00:33:20;17.30;99.90
10459;DHT22;5277;48.722;8.736;2023-09-19T00:35:50;17.30;99.90
10459;DHT22;5277;48.722;8.736;2023-09-19T00:38:16;17.30;99.90
10459;DHT22;5277;48.722;8.736;2023-09-19T00:40:44;17.30;99.90
10459;DHT22;5277;48.722;8.736;2023-09-19T00:43:10;17.30;99.90
10459;DHT22;5277;48.722;8.736;2023-09-19T00:45:37;17.30;99.90
10459;DHT22;5277;48.722;8.736;2023-09-19T00:48:04;17.20;99.90
10459;DHT22;5277;48.722;8.736;2023-09-19T00:50:34;17.20;99.90
10459;DHT22;5277;48.722;8.736;2023-09-19T00:53:00;17.30;99.90
10459;DHT22;5277;48.722;8.736;2023-09-19T00:55:27;17.20;99.90
10459;DHT22;5277;48.722;8.736;2023-09-19T00:57:56;17.20;99.90
10459;DHT22;5277;48.722;8.736;2023-09-19T01:00:21;17.20;99.90
10459;DHT22;5277;48.722;8.736;2023-09-19T01:02:48;17.20;99.90
10459;DHT22;5277;48.722;8.736;2023-09-19T01:05:14;17.20;99.90
10459;DHT22;5277;48.722;8.736;2023-09-19T01:07:40;17.10;99.90
10459;DHT22;5277;48.722;8.736;2023-09-19T01:10:08;17.10;99.90
10459;DHT22;5277;48.722;8.736;2023-09-19T01:23:24;17.10;99.90
10459;DHT22;5277;48.722;8.736;2023-09-19T01:26:04;17.10;99.90
10459;DHT22;5277;48.722;8.736;2023-09-19T01:29:13;17.10;99.90
10459;DHT22;5277;48.722;8.736;2023-09-19T01:31:45;17.10;99.90
10459;DHT22;5277;48.722;8.736;2023-09-19T01:34:11;17.10;99.90
10459;DHT22;5277;48.722;8.736;2023-09-19T01:36:38;17.10;99.90
10459;DHT22;5277;48.722;8.736;2023-09-19T01:39:13;17.10;99.90
10459;DHT22;5277;48.722;8.736;2023-09-19T01:44:21;17.00;99.90
10459;DHT22;5277;48.722;8.736;2023-09-19T01:46:47;17.00;99.90
10459;DHT22;5277;48.722;8.736;2023-09-19T01:49:26;16.90;99.90
10459;DHT22;5277;48.722;8.736;2023-09-19T01:54:31;16.90;99.90
10459;DHT22;5277;48.722;8.736;2023-09-19T01:57:19;16.80;99.90
10459;DHT22;5277;48.722;8.736;2023-09-19T01:59:50;16.80;99.90
10459;DHT22;5277;48.722;8.736;2023-09-19T02:02:17;16.80;99.90
10459;DHT22;5277;48.722;8.736;2023-09-19T02:04:43;16.80;99.90
10459;DHT22;5277;48.722;8.736;2023-09-19T02:07:09;16.70;99.90
10459;DHT22;5277;48.722;8.736;2023-09-19T02:09:34;16.70;99.90
10459;DHT22;5277;48.722;8.736;2023-09-19T02:12:01;16.70;99.90
10459;DHT22;5277;48.722;8.736;2023-09-19T02:14:30;16.70;99.90
10459;DHT22;5277;48.722;8.736;2023-09-19T02:16:56;16.60;99.90
10459;DHT22;5277;48.722;8.736;2023-09-19T02:19:22;16.60;99.90
10459;DHT22;5277;48.722;8.736;2023-09-19T02:21:47;16.60;99.90
10459;DHT22;5277;48.722;8.736;2023-09-19T02:24:14;16.60;99.90
10459;DHT22;5277;48.722;8.736;2023-09-19T02:26:41;16.60;99.90
10459;DHT22;5277;48.722;8.736;2023-09-19T02:29:06;16.60;99.90
10459;DHT22;5277;48.722;8.736;2023-09-19T02:31:32;16.50;99.90
10459;DHT22;5277;48.722;8.736;2023-09-19T02:33:57;16.50;99.90
10459;DHT22;5277;48.722;8.736;2023-09-19T02:36:23;16.50;99.90
10459;DHT22;5277;48.722;8.736;2023-09-19T02:38:49;16.50;99.90
10459;DHT22;5277;48.722;8.736;2023-09-19T02:41:15;16.50;99.90
10459;DHT22;5277;48.722;8.736;2023-09-19T02:43:40;16.50;99.90
10459;DHT22;5277;48.722;8.736;2023-09-19T02:46:08;16.50;99.90
10459;DHT22;5277;48.722;8.736;2023-09-19T02:48:34;16.50;99.90
10459;DHT22;5277;48.722;8.736;2023-09-19T02:51:01;16.50;99.90
10459;DHT22;5277;48.722;8.736;2023-09-19T02:53:28;16.60;99.90
10459;DHT22;5277;48.722;8.736;2023-09-19T02:55:54;16.60;99.90
10459;DHT22;5277;48.722;8.736;2023-09-19T02:58:20;16.60;99.90
10459;DHT22;5277;48.722;8.736;2023-09-19T03:00:46;16.60;99.90
10459;DHT22;5277;48.722;8.736;2023-09-19T03:03:15;16.60;99.90
10459;DHT22;5277;48.722;8.736;2023-09-19T03:05:41;16.70;99.90
10459;DHT22;5277;48.722;8.736;2023-09-19T03:08:13;16.70;99.90
10459;DHT22;5277;48.722;8.736;2023-09-19T03:10:42;16.70;99.90
10459;DHT22;5277;48.722;8.736;2023-09-19T03:13:07;16.70;99.90
10459;DHT22;5277;48.722;8.736;2023-09-19T03:15:35;16.80;99.90
10459;DHT22;5277;48.722;8.736;2023-09-19T03:18:04;16.80;99.90
10459;DHT22;5277;48.722;8.736;2023-09-19T03:20:30;16.90;99.90
10459;DHT22;5277;48.722;8.736;2023-09-19T03:22:55;16.90;99.90
10459;DHT22;5277;48.722;8.736;2023-09-19T03:25:22;16.80;99.90
10459;DHT22;5277;48.722;8.736;2023-09-19T03:27:48;16.80;99.90
10459;DHT22;5277;48.722;8.736;2023-09-19T03:30:16;16.80;99.90
10459;DHT22;5277;48.722;8.736;2023-09-19T03:32:46;16.80;99.90
10459;DHT22;5277;48.722;8.736;2023-09-19T03:35:12;16.90;99.90
10459;DHT22;5277;48.722;8.736;2023-09-19T03:37:43;16.80;99.90
10459;DHT22;5277;48.722;8.736;2023-09-19T03:40:09;16.90;99.90
10459;DHT22;5277;48.722;8.736;2023-09-19T03:42:38;16.90;99.90
10459;DHT22;5277;48.722;8.736;2023-09-19T03:48:16;16.80;99.90
10459;DHT22;5277;48.722;8.736;2023-09-19T03:50:42;16.80;99.90
10459;DHT22;5277;48.722;8.736;2023-09-19T03:53:09;16.90;99.90
10459;DHT22;5277;48.722;8.736;2023-09-19T03:55:35;16.90;99.90
10459;DHT22;5277;48.722;8.736;2023-09-19T03:58:06;16.80;99.90
10459;DHT22;5277;48.722;8.736;2023-09-19T04:00:32;16.80;99.90
10459;DHT22;5277;48.722;8.736;2023-09-19T04:03:01;16.90;99.90
10459;DHT22;5277;48.722;8.736;2023-09-19T04:05:31;16.90;99.90
10459;DHT22;5277;48.722;8.736;2023-09-19T04:07:59;16.90;99.90
10459;DHT22;5277;48.722;8.736;2023-09-19T04:10:25;16.90;99.90
10459;DHT22;5277;48.722;8.736;2023-09-19T04:12:54;16.80;99.90
10459;DHT22;5277;48.722;8.736;2023-09-19T04:15:20;16.80;99.90
10459;DHT22;5277;48.722;8.736;2023-09-19T04:17:52;16.90;99.90
10459;DHT22;5277;48.722;8.736;2023-09-19T04:20:18;16.80;99.90
10459;DHT22;5277;48.722;8.736;2023-09-19T04:22:50;16.80;99.90
10459;DHT22;5277;48.722;8.736;2023-09-19T04:25:16;16.80;99.90
10459;DHT22;5277;48.722;8.736;2023-09-19T04:27:43;16.90;99.90
10459;DHT22;5277;48.722;8.736;2023-09-19T04:30:09;16.90;99.90
10459;DHT22;5277;48.722;8.736;2023-09-19T04:32:40;16.90;99.90
10459;DHT22;5277;48.722;8.736;2023-09-19T04:35:07;17.00;99.90
10459;DHT22;5277;48.722;8.736;2023-09-19T04:37:39;17.00;99.90
10459;DHT22;5277;48.722;8.736;2023-09-19T04:40:07;16.90;99.90
10459;DHT22;5277;48.722;8.736;2023-09-19T04:42:38;17.00;99.90
10459;DHT22;5277;48.722;8.736;2023-09-19T04:45:04;16.90;99.90
10459;DHT22;5277;48.722;8.736;2023-09-19T04:47:30;17.00;99.90
10459;DHT22;5277;48.722;8.736;2023-09-19T04:49:55;17.00;99.90
10459;DHT22;5277;48.722;8.736;2023-09-19T04:52:23;17.10;99.90
10459;DHT22;5277;48.722;8.736;2023-09-19T04:54:49;17.00;99.90
10459;DHT22;5277;48.722;8.736;2023-09-19T04:57:14;17.00;99.90
10459;DHT22;5277;48.722;8.736;2023-09-19T04:59:41;17.00;99.90
10459;DHT22;5277;48.722;8.736;2023-09-19T05:02:07;17.00;99.90
10459;DHT22;5277;48.722;8.736;2023-09-19T05:04:37;17.10;99.90
10459;DHT22;5277;48.722;8.736;2023-09-19T05:07:03;17.00;99.90
10459;DHT22;5277;48.722;8.736;2023-09-19T05:09:28;17.00;99.90
10459;DHT22;5277;48.722;8.736;2023-09-19T05:11:54;17.10;99.90
10459;DHT22;5277;48.722;8.736;2023-09-19T05:14:20;17.10;99.90
10459;DHT22;5277;48.722;8.736;2023-09-19T05:16:46;17.00;99.90
10459;DHT22;5277;48.722;8.736;2023-09-19T05:19:12;17.00;99.90
10459;DHT22;5277;48.722;8.736;2023-09-19T05:21:38;17.00;99.90
10459;DHT22;5277;48.722;8.736;2023-09-19T05:24:05;17.10;99.90
10459;DHT22;5277;48.722;8.736;2023-09-19T05:26:34;17.00;99.90
10459;DHT22;5277;48.722;8.736;2023-09-19T05:28:59;17.10;99.90
10459;DHT22;5277;48.722;8.736;2023-09-19T05:31:26;17.10;99.90
10459;DHT22;5277;48.722;8.736;2023-09-19T05:33:53;17.10;99.90
10459;DHT22;5277;48.722;8.736;2023-09-19T05:36:20;17.10;99.90
10459;DHT22;5277;48.722;8.736;2023-09-19T05:38:46;17.10;99.90
10459;DHT22;5277;48.722;8.736;2023-09-19T05:41:15;17.10;99.90
10459;DHT22;5277;48.722;8.736;2023-09-19T05:43:41;17.10;99.90
10459;DHT22;5277;48.722;8.736;2023-09-19T05:46:07;17.10;99.90
10459;DHT22;5277;48.722;8.736;2023-09-19T05:48:33;17.20;99.90
10459;DHT22;5277;48.722;8.736;2023-09-19T05:50:59;17.10;99.90
10459;DHT22;5277;48.722;8.736;2023-09-19T05:53:27;17.10;99.90
10459;DHT22;5277;48.722;8.736;2023-09-19T05:55:52;17.10;99.90
10459;DHT22;5277;48.722;8.736;2023-09-19T05:58:19;17.10;99.90
10459;DHT22;5277;48.722;8.736;2023-09-19T06:00:45;17.20;99.90
10459;DHT22;5277;48.722;8.736;2023-09-19T06:03:13;17.10;99.90
10459;DHT22;5277;48.722;8.736;2023-09-19T06:05:39;17.10;99.90
10459;DHT22;5277;48.722;8.736;2023-09-19T06:08:07;17.10;99.90
10459;DHT22;5277;48.722;8.736;2023-09-19T06:10:33;17.10;99.90
10459;DHT22;5277;48.722;8.736;2023-09-19T06:13:02;17.20;99.90
10459;DHT22;5277;48.722;8.736;2023-09-19T06:15:29;17.10;99.90
10459;DHT22;5277;48.722;8.736;2023-09-19T06:17:58;17.10;99.90
10459;DHT22;5277;48.722;8.736;2023-09-19T06:20:25;17.20;99.90
10459;DHT22;5277;48.722;8.736;2023-09-19T06:22:52;17.20;99.90
10459;DHT22;5277;48.722;8.736;2023-09-19T06:25:18;17.20;99.90
10459;DHT22;5277;48.722;8.736;2023-09-19T06:27:51;17.30;99.90
10459;DHT22;5277;48.722;8.736;2023-09-19T06:30:24;17.30;99.90
10459;DHT22;5277;48.722;8.736;2023-09-19T06:32:55;17.40;99.90
10459;DHT22;5277;48.722;8.736;2023-09-19T06:35:20;17.30;99.90
10459;DHT22;5277;48.722;8.736;2023-09-19T06:37:46;17.30;99.90
10459;DHT22;5277;48.722;8.736;2023-09-19T06:40:14;17.40;99.90
10459;DHT22;5277;48.722;8.736;2023-09-19T06:43:06;17.50;99.90
10459;DHT22;5277;48.722;8.736;2023-09-19T06:45:32;17.50;99.90
10459;DHT22;5277;48.722;8.736;2023-09-19T06:47:58;17.50;99.90
10459;DHT22;5277;48.722;8.736;2023-09-19T06:50:26;17.50;99.90
10459;DHT22;5277;48.722;8.736;2023-09-19T06:52:54;17.50;99.90
10459;DHT22;5277;48.722;8.736;2023-09-19T06:55:21;17.60;99.90
10459;DHT22;5277;48.722;8.736;2023-09-19T06:57:50;17.60;99.90
10459;DHT22;5277;48.722;8.736;2023-09-19T07:00:16;17.70;99.90
10459;DHT22;5277;48.722;8.736;2023-09-19T07:02:59;17.70;99.90
10459;DHT22;5277;48.722;8.736;2023-09-19T07:05:32;17.70;99.90
10459;DHT22;5277;48.722;8.736;2023-09-19T07:08:01;17.80;99.90
10459;DHT22;5277;48.722;8.736;2023-09-19T07:10:27;17.80;99.90
10459;DHT22;5277;48.722;8.736;2023-09-19T07:13:14;17.80;99.90
10459;DHT22;5277;48.722;8.736;2023-09-19T07:15:43;17.90;99.90
10459;DHT22;5277;48.722;8.736;2023-09-19T07:18:16;18.00;99.90
10459;DHT22;5277;48.722;8.736;2023-09-19T07:20:43;18.00;99.90
10459;DHT22;5277;48.722;8.736;2023-09-19T07:23:23;18.10;99.90
10459;DHT22;5277;48.722;8.736;2023-09-19T07:25:49;18.30;99.90
10459;DHT22;5277;48.722;8.736;2023-09-19T07:28:15;18.40;99.90
10459;DHT22;5277;48.722;8.736;2023-09-19T07:30:41;18.40;99.90
10459;DHT22;5277;48.722;8.736;2023-09-19T07:33:07;18.50;99.90
10459;DHT22;5277;48.722;8.736;2023-09-19T07:35:36;18.60;99.90
10459;DHT22;5277;48.722;8.736;2023-09-19T07:38:05;18.80;99.90
10459;DHT22;5277;48.722;8.736;2023-09-19T07:40:30;19.00;99.90
10459;DHT22;5277;48.722;8.736;2023-09-19T07:42:56;19.20;99.90
10459;DHT22;5277;48.722;8.736;2023-09-19T07:45:22;19.40;99.90
10459;DHT22;5277;48.722;8.736;2023-09-19T07:47:49;19.60;99.90
10459;DHT22;5277;48.722;8.736;2023-09-19T07:50:16;19.60;99.90
10459;DHT22;5277;48.722;8.736;2023-09-19T07:52:44;19.60;99.90
10459;DHT22;5277;48.722;8.736;2023-09-19T07:55:10;19.60;99.90
10459;DHT22;5277;48.722;8.736;2023-09-19T07:57:45;19.60;99.90
10459;DHT22;5277;48.722;8.736;2023-09-19T08:00:11;19.70;99.90
10459;DHT22;5277;48.722;8.736;2023-09-19T08:02:38;19.70;99.90
10459;DHT22;5277;48.722;8.736;2023-09-19T08:05:04;19.80;99.90
10459;DHT22;5277;48.722;8.736;2023-09-19T08:07:36;19.90;99.90
10459;DHT22;5277;48.722;8.736;2023-09-19T08:10:05;19.90;99.90
10459;DHT22;5277;48.722;8.736;2023-09-19T08:12:33;20.00;99.90
10459;DHT22;5277;48.722;8.736;2023-09-19T08:15:01;20.20;99.90
10459;DHT22;5277;48.722;8.736;2023-09-19T08:17:28;20.50;99.90
10459;DHT22;5277;48.722;8.736;2023-09-19T08:19:53;20.70;99.90
10459;DHT22;5277;48.722;8.736;2023-09-19T08:22:22;20.60;99.90
10459;DHT22;5277;48.722;8.736;2023-09-19T08:24:49;20.60;99.90
10459;DHT22;5277;48.722;8.736;2023-09-19T08:27:14;20.60;99.60
10459;DHT22;5277;48.722;8.736;2023-09-19T08:29:40;20.60;99.30
10459;DHT22;5277;48.722;8.736;2023-09-19T08:32:07;20.70;99.00
10459;DHT22;5277;48.722;8.736;2023-09-19T08:34:33;20.80;99.00
10459;DHT22;5277;48.722;8.736;2023-09-19T08:36:59;20.90;98.40
10459;DHT22;5277;48.722;8.736;2023-09-19T08:39:25;20.90;98.20
10459;DHT22;5277;48.722;8.736;2023-09-19T08:41:58;21.10;97.90
10459;DHT22;5277;48.722;8.736;2023-09-19T08:44:27;21.30;97.80
10459;DHT22;5277;48.722;8.736;2023-09-19T08:47:21;21.30;97.50
10459;DHT22;5277;48.722;8.736;2023-09-19T08:50:04;21.40;97.60
10459;DHT22;5277;48.722;8.736;2023-09-19T08:52:41;21.60;97.60
10459;DHT22;5277;48.722;8.736;2023-09-19T08:55:07;21.70;95.80
10459;DHT22;5277;48.722;8.736;2023-09-19T08:57:37;21.70;95.80
10459;DHT22;5277;48.722;8.736;2023-09-19T09:00:07;21.50;95.90
10459;DHT22;5277;48.722;8.736;2023-09-19T09:02:40;21.40;96.20
10459;DHT22;5277;48.722;8.736;2023-09-19T09:05:08;21.30;95.70
10459;DHT22;5277;48.722;8.736;2023-09-19T09:07:36;21.30;96.50
10459;DHT22;5277;48.722;8.736;2023-09-19T09:10:03;21.20;96.40
10459;DHT22;5277;48.722;8.736;2023-09-19T09:12:30;21.20;96.90
10459;DHT22;5277;48.722;8.736;2023-09-19T09:14:56;21.20;95.70
10459;DHT22;5277;48.722;8.736;2023-09-19T09:17:23;21.10;95.60
10459;DHT22;5277;48.722;8.736;2023-09-19T09:19:52;21.10;95.40
10459;DHT22;5277;48.722;8.736;2023-09-19T09:22:18;21.20;95.80
10459;DHT22;5277;48.722;8.736;2023-09-19T09:24:59;21.20;95.70
10459;DHT22;5277;48.722;8.736;2023-09-19T09:27:27;21.20;96.00
10459;DHT22;5277;48.722;8.736;2023-09-19T09:29:53;21.20;95.80
10459;DHT22;5277;48.722;8.736;2023-09-19T09:32:27;21.10;95.40
10459;DHT22;5277;48.722;8.736;2023-09-19T09:35:03;21.10;95.50
10459;DHT22;5277;48.722;8.736;2023-09-19T09:37:34;21.00;95.60
10459;DHT22;5277;48.722;8.736;2023-09-19T09:40:04;21.00;95.90
10459;DHT22;5277;48.722;8.736;2023-09-19T09:42:39;21.00;95.00
10459;DHT22;5277;48.722;8.736;2023-09-19T09:45:18;21.10;95.30
10459;DHT22;5277;48.722;8.736;2023-09-19T09:48:00;21.20;95.60
10459;DHT22;5277;48.722;8.736;2023-09-19T09:50:36;21.20;93.80
10459;DHT22;5277;48.722;8.736;2023-09-19T09:53:24;21.00;93.30
10459;DHT22;5277;48.722;8.736;2023-09-19T09:56:10;20.70;93.20
10459;DHT22;5277;48.722;8.736;2023-09-19T09:58:59;20.60;93.20
10459;DHT22;5277;48.722;8.736;2023-09-19T10:01:24;20.50;93.40
10459;DHT22;5277;48.722;8.736;2023-09-19T10:03:57;20.60;93.40
10459;DHT22;5277;48.722;8.736;2023-09-19T10:06:23;20.90;93.60
10459;DHT22;5277;48.722;8.736;2023-09-19T10:11:44;21.30;93.00
10459;DHT22;5277;48.722;8.736;2023-09-19T10:14:12;21.20;92.80
10459;DHT22;5277;48.722;8.736;2023-09-19T10:16:49;21.20;93.90
10459;DHT22;5277;48.722;8.736;2023-09-19T10:19:24;21.10;93.30
10459;DHT22;5277;48.722;8.736;2023-09-19T10:21:54;21.70;92.90
10459;DHT22;5277;48.722;8.736;2023-09-19T10:24:22;22.90;91.20
10459;DHT22;5277;48.722;8.736;2023-09-19T10:26:50;24.20;90.10
10459;DHT22;5277;48.722;8.736;2023-09-19T10:29:18;25.40;84.00
10459;DHT22;5277;48.722;8.736;2023-09-19T10:31:47;26.40;79.40
10459;DHT22;5277;48.722;8.736;2023-09-19T10:34:19;27.40;74.50
10459;DHT22;5277;48.722;8.736;2023-09-19T10:36:46;28.00;68.40
10459;DHT22;5277;48.722;8.736;2023-09-19T10:39:15;28.50;66.50
10459;DHT22;5277;48.722;8.736;2023-09-19T10:41:51;29.30;66.30
10459;DHT22;5277;48.722;8.736;2023-09-19T10:44:25;30.30;60.40
10459;DHT22;5277;48.722;8.736;2023-09-19T10:46:54;31.10;59.30
10459;DHT22;5277;48.722;8.736;2023-09-19T10:49:21;31.70;55.00
10459;DHT22;5277;48.722;8.736;2023-09-19T10:51:49;32.00;52.90
10459;DHT22;5277;48.722;8.736;2023-09-19T10:54:20;31.70;52.40
10459;DHT22;5277;48.722;8.736;2023-09-19T10:56:49;31.30;52.40
10459;DHT22;5277;48.722;8.736;2023-09-19T10:59:18;30.70;51.40
10459;DHT22;5277;48.722;8.736;2023-09-19T11:01:50;30.70;52.60
10459;DHT22;5277;48.722;8.736;2023-09-19T11:04:39;30.10;50.20
10459;DHT22;5277;48.722;8.736;2023-09-19T11:07:13;30.50;52.70
10459;DHT22;5277;48.722;8.736;2023-09-19T11:09:50;31.00;51.10
10459;DHT22;5277;48.722;8.736;2023-09-19T11:15:07;31.30;51.90
10459;DHT22;5277;48.722;8.736;2023-09-19T11:17:38;31.70;50.60
10459;DHT22;5277;48.722;8.736;2023-09-19T11:30:40;32.00;47.80
10459;DHT22;5277;48.722;8.736;2023-09-19T11:36:34;31.10;48.40
10459;DHT22;5277;48.722;8.736;2023-09-19T11:39:01;30.70;49.00
10459;DHT22;5277;48.722;8.736;2023-09-19T11:41:40;30.90;48.90
10459;DHT22;5277;48.722;8.736;2023-09-19T11:49:27;30.80;49.80
10459;DHT22;5277;48.722;8.736;2023-09-19T11:51:58;31.00;47.90
10459;DHT22;5277;48.722;8.736;2023-09-19T11:54:30;30.90;50.10
10459;DHT22;5277;48.722;8.736;2023-09-19T11:57:00;30.80;48.10
10459;DHT22;5277;48.722;8.736;2023-09-19T11:59:29;30.50;47.90
10459;DHT22;5277;48.722;8.736;2023-09-19T12:02:01;30.40;48.30
10459;DHT22;5277;48.722;8.736;2023-09-19T12:07:12;30.20;48.70
10459;DHT22;5277;48.722;8.736;2023-09-19T12:09:46;30.60;48.80
10459;DHT22;5277;48.722;8.736;2023-09-19T12:12:22;31.10;48.80
10459;DHT22;5277;48.722;8.736;2023-09-19T12:14:49;31.70;47.60
10459;DHT22;5277;48.722;8.736;2023-09-19T12:17:16;32.00;46.60
10459;DHT22;5277;48.722;8.736;2023-09-19T12:19:51;32.30;45.60
10459;DHT22;5277;48.722;8.736;2023-09-19T12:22:17;31.80;45.40
10459;DHT22;5277;48.722;8.736;2023-09-19T12:24:45;31.30;46.70
10459;DHT22;5277;48.722;8.736;2023-09-19T12:27:12;31.70;47.70
10459;DHT22;5277;48.722;8.736;2023-09-19T12:29:48;32.20;45.50
10459;DHT22;5277;48.722;8.736;2023-09-19T12:32:37;32.00;45.40
10459;DHT22;5277;48.722;8.736;2023-09-19T12:35:06;31.50;46.20
10459;DHT22;5277;48.722;8.736;2023-09-19T12:37:44;30.70;46.00
10459;DHT22;5277;48.722;8.736;2023-09-19T12:40:19;29.70;47.70
10459;DHT22;5277;48.722;8.736;2023-09-19T12:42:52;28.70;49.50
10459;DHT22;5277;48.722;8.736;2023-09-19T12:45:20;28.10;52.30
10459;DHT22;5277;48.722;8.736;2023-09-19T12:51:02;27.90;52.50
10459;DHT22;5277;48.722;8.736;2023-09-19T12:53:38;28.50;52.20
10459;DHT22;5277;48.722;8.736;2023-09-19T12:56:09;28.90;50.90
10459;DHT22;5277;48.722;8.736;2023-09-19T12:58:56;28.90;50.40
10459;DHT22;5277;48.722;8.736;2023-09-19T13:01:23;28.80;50.70
10459;DHT22;5277;48.722;8.736;2023-09-19T13:04:30;28.70;52.20
10459;DHT22;5277;48.722;8.736;2023-09-19T13:06:58;28.10;51.20
10459;DHT22;5277;48.722;8.736;2023-09-19T13:09:27;27.60;52.80
10459;DHT22;5277;48.722;8.736;2023-09-19T13:12:04;27.30;54.50
10459;DHT22;5277;48.722;8.736;2023-09-19T13:14:31;26.60;54.90
10459;DHT22;5277;48.722;8.736;2023-09-19T13:17:05;26.20;56.10
10459;DHT22;5277;48.722;8.736;2023-09-19T13:19:51;25.50;56.90
10459;DHT22;5277;48.722;8.736;2023-09-19T13:22:45;25.10;59.50
10459;DHT22;5277;48.722;8.736;2023-09-19T13:25:16;24.70;60.50
10459;DHT22;5277;48.722;8.736;2023-09-19T13:27:56;24.40;62.00
10459;DHT22;5277;48.722;8.736;2023-09-19T13:30:23;24.20;61.10
10459;DHT22;5277;48.722;8.736;2023-09-19T13:33:10;24.00;62.80
10459;DHT22;5277;48.722;8.736;2023-09-19T13:35:39;23.50;63.70
10459;DHT22;5277;48.722;8.736;2023-09-19T13:38:09;23.30;64.00
10459;DHT22;5277;48.722;8.736;2023-09-19T13:40:35;23.10;64.60
10459;DHT22;5277;48.722;8.736;2023-09-19T13:43:01;23.00;67.20
10459;DHT22;5277;48.722;8.736;2023-09-19T13:45:27;22.90;68.10
10459;DHT22;5277;48.722;8.736;2023-09-19T13:47:56;22.80;63.60
10459;DHT22;5277;48.722;8.736;2023-09-19T13:50:22;22.70;63.00
10459;DHT22;5277;48.722;8.736;2023-09-19T13:52:50;22.70;64.20
10459;DHT22;5277;48.722;8.736;2023-09-19T13:55:17;22.80;66.20
10459;DHT22;5277;48.722;8.736;2023-09-19T13:57:48;22.70;63.80
10459;DHT22;5277;48.722;8.736;2023-09-19T14:00:22;22.70;63.90
10459;DHT22;5277;48.722;8.736;2023-09-19T14:02:48;22.60;67.40
10459;DHT22;5277;48.722;8.736;2023-09-19T14:05:15;22.70;64.70
10459;DHT22;5277;48.722;8.736;2023-09-19T14:07:42;22.60;66.10
10459;DHT22;5277;48.722;8.736;2023-09-19T14:10:09;22.70;70.30
10459;DHT22;5277;48.722;8.736;2023-09-19T14:12:39;22.70;68.70
10459;DHT22;5277;48.722;8.736;2023-09-19T14:15:10;22.70;68.60
10459;DHT22;5277;48.722;8.736;2023-09-19T14:17:38;22.80;73.50
10459;DHT22;5277;48.722;8.736;2023-09-19T14:20:04;22.70;72.40
10459;DHT22;5277;48.722;8.736;2023-09-19T14:22:31;22.60;66.40
10459;DHT22;5277;48.722;8.736;2023-09-19T14:25:00;22.60;66.20
10459;DHT22;5277;48.722;8.736;2023-09-19T14:27:26;22.50;64.50
10459;DHT22;5277;48.722;8.736;2023-09-19T14:29:51;22.40;64.40
10459;DHT22;5277;48.722;8.736;2023-09-19T14:32:18;22.40;65.10
10459;DHT22;5277;48.722;8.736;2023-09-19T14:34:44;22.30;69.20
10459;DHT22;5277;48.722;8.736;2023-09-19T14:37:11;22.30;67.40
10459;DHT22;5277;48.722;8.736;2023-09-19T14:39:37;22.20;66.10
10459;DHT22;5277;48.722;8.736;2023-09-19T14:42:05;22.10;67.30
10459;DHT22;5277;48.722;8.736;2023-09-19T14:44:30;22.10;65.60
10459;DHT22;5277;48.722;8.736;2023-09-19T14:46:58;22.00;66.90
10459;DHT22;5277;48.722;8.736;2023-09-19T14:49:24;22.10;65.70
10459;DHT22;5277;48.722;8.736;2023-09-19T14:51:50;22.10;65.60
10459;DHT22;5277;48.722;8.736;2023-09-19T14:54:18;22.00;68.60
10459;DHT22;5277;48.722;8.736;2023-09-19T14:56:44;22.00;66.90
10459;DHT22;5277;48.722;8.736;2023-09-19T14:59:10;22.00;66.50
10459;DHT22;5277;48.722;8.736;2023-09-19T15:01:40;22.00;66.30
10459;DHT22;5277;48.722;8.736;2023-09-19T15:04:07;22.00;67.50
10459;DHT22;5277;48.722;8.736;2023-09-19T15:06:34;22.00;67.40
10459;DHT22;5277;48.722;8.736;2023-09-19T15:09:00;22.00;68.90
10459;DHT22;5277;48.722;8.736;2023-09-19T15:11:26;22.00;70.00
10459;DHT22;5277;48.722;8.736;2023-09-19T15:13:52;22.00;73.30
10459;DHT22;5277;48.722;8.736;2023-09-19T15:16:19;21.90;74.00
10459;DHT22;5277;48.722;8.736;2023-09-19T15:18:45;21.90;75.30
10459;DHT22;5277;48.722;8.736;2023-09-19T15:21:13;21.90;77.20
10459;DHT22;5277;48.722;8.736;2023-09-19T15:23:41;21.80;72.00
10459;DHT22;5277;48.722;8.736;2023-09-19T15:26:13;21.80;77.80
10459;DHT22;5277;48.722;8.736;2023-09-19T15:28:39;21.70;75.10
10459;DHT22;5277;48.722;8.736;2023-09-19T15:31:12;21.80;77.30
10459;DHT22;5277;48.722;8.736;2023-09-19T15:33:39;21.80;72.80
10459;DHT22;5277;48.722;8.736;2023-09-19T15:36:10;21.80;74.10
10459;DHT22;5277;48.722;8.736;2023-09-19T15:38:59;21.80;76.70
10459;DHT22;5277;48.722;8.736;2023-09-19T15:41:29;21.70;76.10
10459;DHT22;5277;48.722;8.736;2023-09-19T15:43:56;21.60;77.40
10459;DHT22;5277;48.722;8.736;2023-09-19T15:46:23;21.60;78.10
10459;DHT22;5277;48.722;8.736;2023-09-19T15:48:48;21.50;78.70
10459;DHT22;5277;48.722;8.736;2023-09-19T15:51:15;21.50;79.10
10459;DHT22;5277;48.722;8.736;2023-09-19T15:53:46;21.50;80.20
10459;DHT22;5277;48.722;8.736;2023-09-19T15:56:12;21.40;79.30
10459;DHT22;5277;48.722;8.736;2023-09-19T15:58:40;21.30;78.90
10459;DHT22;5277;48.722;8.736;2023-09-19T16:01:06;21.30;77.80
10459;DHT22;5277;48.722;8.736;2023-09-19T16:03:36;21.30;80.30
10459;DHT22;5277;48.722;8.736;2023-09-19T16:06:08;21.30;80.60
10459;DHT22;5277;48.722;8.736;2023-09-19T16:08:35;21.20;81.30
10459;DHT22;5277;48.722;8.736;2023-09-19T16:11:01;21.20;82.00
10459;DHT22;5277;48.722;8.736;2023-09-19T16:13:28;21.20;81.90
10459;DHT22;5277;48.722;8.736;2023-09-19T16:15:54;21.10;83.20
10459;DHT22;5277;48.722;8.736;2023-09-19T16:18:19;21.10;84.20
10459;DHT22;5277;48.722;8.736;2023-09-19T16:20:45;21.00;83.90
10459;DHT22;5277;48.722;8.736;2023-09-19T16:23:12;20.90;82.70
10459;DHT22;5277;48.722;8.736;2023-09-19T16:25:37;20.80;84.80
10459;DHT22;5277;48.722;8.736;2023-09-19T16:28:03;20.80;84.70
10459;DHT22;5277;48.722;8.736;2023-09-19T16:30:32;20.70;87.10
10459;DHT22;5277;48.722;8.736;2023-09-19T16:32:59;20.60;88.10
10459;DHT22;5277;48.722;8.736;2023-09-19T16:35:25;20.50;87.30
10459;DHT22;5277;48.722;8.736;2023-09-19T16:37:50;20.50;86.30
10459;DHT22;5277;48.722;8.736;2023-09-19T16:40:16;20.40;85.40
10459;DHT22;5277;48.722;8.736;2023-09-19T16:42:42;20.40;87.90
10459;DHT22;5277;48.722;8.736;2023-09-19T16:45:08;20.30;87.90
10459;DHT22;5277;48.722;8.736;2023-09-19T16:47:36;20.10;87.90